Time;durP1;ratioP1;P1;durP2;ratioP2;P2;SDS_P1;SDS_P2;PMS_P1;PMS_P2;Temp;Humidity;BMP_temperature;BMP_pressure;BME280_temperature;BME280_humidity;BME280_pressure;Samples;Min_cycle;Max_cycle;Signal;HPM_P1;HPM_P2
2022/08/10 00:01:33;;;;;;;;;;;;;;;;;;4967014;28;19989;-58
2022/08/10 00:03:59;;;;;;;;;;;;;;;;;;4967485;28;19930;-58
2022/08/10 00:06:25;;;;;;;;;;;;;;;;;;4972084;28;19929;-58
2022/08/10 00:08:51;;;;;;;;;;;;;;;;;;4987363;28;20423;-58
2022/08/10 00:11:17;;;;;;;;;;;;;;;;;;4985942;28;19951;-58
2022/08/10 00:13:43;;;;;;;;;;;;;;;;;;4987421;28;20800;-58
2022/08/10 00:16:09;;;;;;;;;;;;;;;;;;4985370;28;19926;-59
2022/08/10 00:18:35;;;;;;;;;;;;;;;;;;4987457;28;19929;-58
2022/08/10 00:21:01;;;;;;;;;;;;;;;;;;4986581;28;19972;-62
2022/08/10 00:23:27;;;;;;;;;;;;;;;;;;4986959;28;19980;-58
2022/08/10 00:25:53;;;;;;;;;;;;;;;;;;4986901;28;19932;-58
2022/08/10 00:28:19;;;;;;;;;;;;;;;;;;4986222;28;19973;-59
2022/08/10 00:30:45;;;;;;;;;;;;;;;;;;4986772;28;19922;-59
2022/08/10 00:33:11;;;;;;;;;;;;;;;;;;4985892;28;20346;-58
2022/08/10 00:35:37;;;;;;;;;;;;;;;;;;4986749;28;19926;-59
2022/08/10 00:38:03;;;;;;;;;;;;;;;;;;4986619;28;19926;-59
2022/08/10 00:40:29;;;;;;;;;;;;;;;;;;4986233;28;19937;-58
2022/08/10 00:42:55;;;;;;;;;;;;;;;;;;4986481;28;20452;-59
2022/08/10 00:45:21;;;;;;;;;;;;;;;;;;4986610;28;19968;-58
2022/08/10 00:47:47;;;;;;;;;;;;;;;;;;4985779;28;20458;-58
2022/08/10 00:50:16;;;;;;;;;;;;;;;;;;4985625;28;19995;-58
2022/08/10 00:52:42;;;;;;;;;;;;;;;;;;4986589;28;19925;-59
2022/08/10 00:55:08;;;;;;;;;;;;;;;;;;4986891;28;20080;-58
2022/08/10 00:57:34;;;;;;;;;;;;;;;;;;4986567;28;19925;-58
2022/08/10 01:00:00;;;;;;;;;;;;;;;;;;4986522;28;20012;-59
2022/08/10 01:02:26;;;;;;;;;;;;;;;;;;4984658;28;20065;-58
2022/08/10 01:04:52;;;;;;;;;;;;;;;;;;5001139;22;20020;-59
2022/08/10 01:07:18;;;;;;;;;;;;;;;;;;5024794;28;19932;-58
2022/08/10 01:09:44;;;;;;;;;;;;;;;;;;5025799;28;20016;-59
2022/08/10 01:12:10;;;;;;;;;;;;;;;;;;5025160;28;20383;-58
2022/08/10 01:14:36;;;;;;;;;;;;;;;;;;5025162;28;19932;-59
2022/08/10 01:17:04;;;;;;;;;;;;;;;;;;5031323;28;22325;-58
2022/08/10 01:19:30;;;;;;;;;;;;;;;;;;5045363;28;20019;-59
2022/08/10 01:21:57;;;;;;;;;;;;;;;;;;5044813;28;19976;-58
2022/08/10 01:24:23;;;;;;;;;;;;;;;;;;5044920;28;19925;-58
2022/08/10 01:26:49;;;;;;;;;;;;;;;;;;5044605;28;20032;-59
2022/08/10 01:29:16;;;;;;;;;;;;;;;;;;5044924;28;20448;-59
2022/08/10 01:31:42;;;;;;;;;;;;;;;;;;5043652;28;20370;-58
2022/08/10 01:34:08;;;;;;;;;;;;;;;;;;5045374;28;19924;-58
2022/08/10 01:36:34;;;;;;;;;;;;;;;;;;5044421;28;19925;-58
2022/08/10 01:39:00;;;;;;;;;;;;;;;;;;5045192;28;20394;-58
2022/08/10 01:41:26;;;;;;;;;;;;;;;;;;5044392;28;20025;-59
2022/08/10 01:43:52;;;;;;;;;;;;;;;;;;5045069;28;20031;-58
2022/08/10 01:46:18;;;;;;;;;;;;;;;;;;5043608;28;19929;-58
2022/08/10 01:48:44;;;;;;;;;;;;;;;;;;5044149;28;20413;-58
2022/08/10 01:51:10;;;;;;;;;;;;;;;;;;5026414;28;19928;-59
2022/08/10 01:53:36;;;;;;;;;;;;;;;;;;5045339;28;19925;-58
2022/08/10 01:56:02;;;;;;;;;;;;;;;;;;5044616;28;20448;-58
2022/08/10 01:58:28;;;;;;;;;;;;;;;;;;5044571;28;20016;-58
2022/08/10 02:00:54;;;;;;;;;;;;;;;;;;5025144;28;20024;-58
2022/08/10 02:03:20;;;;;;;;;;;;;;;;;;5044447;28;19931;-58
2022/08/10 02:05:46;;;;;;;;;;;;;;;;;;5044259;28;20092;-59
2022/08/10 02:08:12;;;;;;;;;;;;;;;;;;5044495;28;19931;-59
2022/08/10 02:10:38;;;;;;;;;;;;;;;;;;5044763;28;19970;-58
2022/08/10 02:13:04;;;;;;;;;;;;;;;;;;5044343;28;19925;-58
2022/08/10 02:15:32;;;;;;;;;;;;;;;;;;5044092;28;19917;-58
2022/08/10 02:17:58;;;;;;;;;;;;;;;;;;5043697;28;20035;-58
2022/08/10 02:20:24;;;;;;;;;;;;;;;;;;5026308;28;20007;-58
2022/08/10 02:22:50;;;;;;;;;;;;;;;;;;5026350;28;20531;-58
2022/08/10 02:25:16;;;;;;;;;;;;;;;;;;5043806;28;19924;-59
2022/08/10 02:27:42;;;;;;;;;;;;;;;;;;5044348;28;20282;-58
2022/08/10 02:30:08;;;;;;;;;;;;;;;;;;5044500;28;19925;-58
2022/08/10 02:32:34;;;;;;;;;;;;;;;;;;5044063;28;19936;-58
2022/08/10 02:35:00;;;;;;;;;;;;;;;;;;5047917;28;19925;-58
2022/08/10 02:37:26;;;;;;;;;;;;;;;;;;5029667;28;20317;-59
2022/08/10 02:39:52;;;;;;;;;;;;;;;;;;5048225;28;19921;-58
2022/08/10 02:42:18;;;;;;;;;;;;;;;;;;5048010;28;20422;-58
2022/08/10 02:44:44;;;;;;;;;;;;;;;;;;5048124;28;19924;-59
2022/08/10 02:47:10;;;;;;;;;;;;;;;;;;5046747;28;19927;-58
2022/08/10 02:49:36;;;;;;;;;;;;;;;;;;5048619;28;19932;-58
2022/08/10 02:52:02;;;;;;;;;;;;;;;;;;5047874;28;20271;-58
2022/08/10 02:54:28;;;;;;;;;;;;;;;;;;5047892;28;19925;-58
2022/08/10 02:56:54;;;;;;;;;;;;;;;;;;5047881;28;19932;-58
2022/08/10 02:59:20;;;;;;;;;;;;;;;;;;5047338;28;20435;-58
2022/08/10 03:01:46;;;;;;;;;;;;;;;;;;5046867;28;20003;-58
2022/08/10 03:04:12;;;;;;;;;;;;;;;;;;5047992;28;20020;-58
2022/08/10 03:06:38;;;;;;;;;;;;;;;;;;5047674;28;19925;-58
2022/08/10 03:09:04;;;;;;;;;;;;;;;;;;5048130;28;19970;-58
2022/08/10 03:11:30;;;;;;;;;;;;;;;;;;5046884;28;19921;-58
2022/08/10 03:13:56;;;;;;;;;;;;;;;;;;5047601;28;20512;-58
2022/08/10 03:16:22;;;;;;;;;;;;;;;;;;5046739;28;20008;-58
2022/08/10 03:18:48;;;;;;;;;;;;;;;;;;5047963;28;19917;-58
2022/08/10 03:21:14;;;;;;;;;;;;;;;;;;5047190;28;19971;-58
2022/08/10 03:23:40;;;;;;;;;;;;;;;;;;5047010;28;20418;-59
2022/08/10 03:26:06;;;;;;;;;;;;;;;;;;5047388;28;19925;-58
2022/08/10 03:28:32;;;;;;;;;;;;;;;;;;5047120;28;19974;-58
2022/08/10 03:30:58;;;;;;;;;;;;;;;;;;5046545;28;20879;-58
2022/08/10 03:33:24;;;;;;;;;;;;;;;;;;5046771;28;19925;-58
2022/08/10 03:35:50;;;;;;;;;;;;;;;;;;5046566;28;19978;-58
2022/08/10 03:38:16;;;;;;;;;;;;;;;;;;5047176;28;19925;-58
2022/08/10 03:40:42;;;;;;;;;;;;;;;;;;5047140;28;20007;-58
2022/08/10 03:43:08;;;;;;;;;;;;;;;;;;5047118;28;20678;-58
2022/08/10 03:45:34;;;;;;;;;;;;;;;;;;5046304;28;19971;-58
2022/08/10 03:48:00;;;;;;;;;;;;;;;;;;5029160;28;19936;-58
2022/08/10 03:50:26;;;;;;;;;;;;;;;;;;5046975;28;19944;-58
2022/08/10 03:52:54;;;;;;;;;;;;;;;;;;5046843;28;20263;-58
2022/08/10 03:55:20;;;;;;;;;;;;;;;;;;5046651;28;19932;-58
2022/08/10 03:57:46;;;;;;;;;;;;;;;;;;5046045;28;19924;-58
2022/08/10 04:00:11;;;;;;;;;;;;;;;;;;5028734;28;19924;-58
2022/08/10 04:02:37;;;;;;;;;;;;;;;;;;5046276;28;19925;-59
2022/08/10 04:05:03;;;;;;;;;;;;;;;;;;5029019;28;20376;-58
2022/08/10 04:07:29;;;;;;;;;;;;;;;;;;5046290;28;19972;-58
2022/08/10 04:09:55;;;;;;;;;;;;;;;;;;5028547;28;19984;-58
2022/08/10 04:12:21;;;;;;;;;;;;;;;;;;5046740;28;20591;-58
2022/08/10 04:14:47;;;;;;;;;;;;;;;;;;5046475;28;19935;-58
2022/08/10 04:17:13;;;;;;;;;;;;;;;;;;5045806;28;19929;-58
2022/08/10 04:19:39;;;;;;;;;;;;;;;;;;5046255;28;19935;-58
2022/08/10 04:22:05;;;;;;;;;;;;;;;;;;5045530;28;20003;-57
2022/08/10 04:24:31;;;;;;;;;;;;;;;;;;5045919;28;20465;-58
2022/08/10 04:26:57;;;;;;;;;;;;;;;;;;5046215;28;19924;-58
2022/08/10 04:29:23;;;;;;;;;;;;;;;;;;5045898;28;19982;-58
2022/08/10 04:31:49;;;;;;;;;;;;;;;;;;5045490;28;20333;-58
2022/08/10 04:34:15;;;;;;;;;;;;;;;;;;5045396;28;19925;-58
2022/08/10 04:36:41;;;;;;;;;;;;;;;;;;5045918;28;19925;-58
2022/08/10 04:39:08;;;;;;;;;;;;;;;;;;5046210;28;20015;-58
2022/08/10 04:41:34;;;;;;;;;;;;;;;;;;5045946;28;19972;-58
2022/08/10 04:44:00;;;;;;;;;;;;;;;;;;5045895;28;19975;-58
2022/08/10 04:46:26;;;;;;;;;;;;;;;;;;5044856;28;19925;-58
2022/08/10 04:48:52;;;;;;;;;;;;;;;;;;5046035;28;19925;-58
2022/08/10 04:51:18;;;;;;;;;;;;;;;;;;5045778;28;19951;-58
2022/08/10 04:53:44;;;;;;;;;;;;;;;;;;5045982;28;20014;-58
2022/08/10 04:56:10;;;;;;;;;;;;;;;;;;5044517;28;19924;-58
2022/08/10 04:58:36;;;;;;;;;;;;;;;;;;5045867;28;19931;-58
2022/08/10 05:01:02;;;;;;;;;;;;;;;;;;5044989;28;19931;-58
2022/08/10 05:03:28;;;;;;;;;;;;;;;;;;5045428;28;19929;-58
2022/08/10 05:05:54;;;;;;;;;;;;;;;;;;5045482;28;20405;-58
2022/08/10 05:08:21;;;;;;;;;;;;;;;;;;5045099;28;19932;-58
2022/08/10 05:10:47;;;;;;;;;;;;;;;;;;5045222;28;20477;-58
2022/08/10 05:13:13;;;;;;;;;;;;;;;;;;5045238;28;20024;-58
2022/08/10 05:15:42;;;;;;;;;;;;;;;;;;5026959;28;19932;-60
2022/08/10 05:18:08;;;;;;;;;;;;;;;;;;5045468;28;20468;-58
2022/08/10 05:20:34;;;;;;;;;;;;;;;;;;5045138;28;19947;-58
2022/08/10 05:23:00;;;;;;;;;;;;;;;;;;5045085;28;20390;-58
2022/08/10 05:25:26;;;;;;;;;;;;;;;;;;5046347;28;19925;-58
2022/08/10 05:27:52;;;;;;;;;;;;;;;;;;5050414;28;19928;-58
2022/08/10 05:30:18;;;;;;;;;;;;;;;;;;5044323;28;20356;-58
2022/08/10 05:32:44;;;;;;;;;;;;;;;;;;5044554;28;19920;-58
2022/08/10 05:35:10;;;;;;;;;;;;;;;;;;5044861;28;19951;-58
2022/08/10 05:37:36;;;;;;;;;;;;;;;;;;5045249;28;19925;-58
2022/08/10 05:40:02;;;;;;;;;;;;;;;;;;5044524;28;19925;-58
2022/08/10 05:42:28;;;;;;;;;;;;;;;;;;5044740;28;19929;-58
2022/08/10 05:44:54;;;;;;;;;;;;;;;;;;5044449;28;19931;-58
2022/08/10 05:47:20;;;;;;;;;;;;;;;;;;5043897;28;19947;-58
2022/08/10 05:49:46;;;;;;;;;;;;;;;;;;5044658;28;19925;-58
2022/08/10 05:52:12;;;;;;;;;;;;;;;;;;5044743;28;19925;-58
2022/08/10 05:54:38;;;;;;;;;;;;;;;;;;5044627;28;19934;-60
2022/08/10 05:57:04;;;;;;;;;;;;;;;;;;5044812;28;20307;-58
2022/08/10 05:59:32;;;;;;;;;;;;;;;;;;5044255;28;19921;-58
2022/08/10 06:01:58;;;;;;;;;;;;;;;;;;5043723;28;19972;-58
2022/08/10 06:04:24;;;;;;;;;;;;;;;;;;5043997;28;19979;-58
2022/08/10 06:06:51;;;;;;;;;;;;;;;;;;5043786;28;19936;-58
2022/08/10 06:09:17;;;;;;;;;;;;;;;;;;5044061;28;19980;-58
2022/08/10 06:11:44;;;;;;;;;;;;;;;;;;5044568;28;19975;-58
2022/08/10 06:16:55;;;;;;;;;;;;;;;;;;5043346;28;19978;-58
2022/08/10 06:19:21;;;;;;;;;;;;;;;;;;5044037;28;20349;-58
2022/08/10 06:21:47;;;;;;;;;;;;;;;;;;5044229;28;19925;-58
2022/08/10 06:24:16;;;;;;;;;;;;;;;;;;5026175;28;19925;-58
2022/08/10 06:26:42;;;;;;;;;;;;;;;;;;5043584;28;19929;-58
2022/08/10 06:29:08;;;;;;;;;;;;;;;;;;5044185;28;19925;-58
2022/08/10 06:31:34;;;;;;;;;;;;;;;;;;5043452;28;19928;-58
2022/08/10 06:34:00;;;;;;;;;;;;;;;;;;5026240;28;19928;-58
2022/08/10 06:36:26;;;;;;;;;;;;;;;;;;5043608;28;19924;-58
2022/08/10 06:38:52;;;;;;;;;;;;;;;;;;5043881;28;19983;-58
2022/08/10 06:41:18;;;;;;;;;;;;;;;;;;5043914;28;20034;-58
2022/08/10 06:43:44;;;;;;;;;;;;;;;;;;5044161;28;19925;-59
2022/08/10 06:46:10;;;;;;;;;;;;;;;;;;5043227;28;19931;-60
2022/08/10 06:48:36;;;;;;;;;;;;;;;;;;5044275;28;19924;-60
2022/08/10 06:51:02;;;;;;;;;;;;;;;;;;5043620;28;19932;-59
2022/08/10 06:53:28;;;;;;;;;;;;;;;;;;5043491;28;19929;-60
2022/08/10 06:55:56;;;;;;;;;;;;;;;;;;5043651;28;19992;-60
2022/08/10 06:58:22;;;;;;;;;;;;;;;;;;5043553;28;20019;-59
2022/08/10 07:00:48;;;;;;;;;;;;;;;;;;5042998;28;20075;-60
2022/08/10 07:03:14;;;;;;;;;;;;;;;;;;5043090;28;19931;-60
2022/08/10 07:05:40;;;;;;;;;;;;;;;;;;5043697;28;19924;-61
2022/08/10 07:08:06;;;;;;;;;;;;;;;;;;5044255;28;20341;-59
2022/08/10 07:10:32;;;;;;;;;;;;;;;;;;5043616;28;19917;-60
2022/08/10 07:12:58;;;;;;;;;;;;;;;;;;5043479;28;20649;-60
2022/08/10 07:15:24;;;;;;;;;;;;;;;;;;5042672;28;20373;-60
2022/08/10 07:17:50;;;;;;;;;;;;;;;;;;5044489;28;19979;-59
2022/08/10 07:20:16;;;;;;;;;;;;;;;;;;5051122;28;20004;-59
2022/08/10 07:22:42;;;;;;;;;;;;;;;;;;5047177;28;19925;-60
2022/08/10 07:25:08;;;;;;;;;;;;;;;;;;5053642;28;20000;-61
2022/08/10 07:27:34;;;;;;;;;;;;;;;;;;5047345;28;19983;-61
2022/08/10 07:30:00;;;;;;;;;;;;;;;;;;5046554;28;20542;-61
2022/08/10 07:32:26;;;;;;;;;;;;;;;;;;5046642;28;19925;-60
2022/08/10 07:34:52;;;;;;;;;;;;;;;;;;5047219;28;19956;-60
2022/08/10 07:37:18;;;;;;;;;;;;;;;;;;5046039;28;19979;-59
2022/08/10 07:39:44;;;;;;;;;;;;;;;;;;5047186;28;19936;-61
2022/08/10 07:42:10;;;;;;;;;;;;;;;;;;5046635;28;19925;-61
2022/08/10 07:44:37;;;;;;;;;;;;;;;;;;5047243;28;20444;-61
2022/08/10 07:47:03;;;;;;;;;;;;;;;;;;5046169;28;19921;-62
2022/08/10 07:49:29;;;;;;;;;;;;;;;;;;5046222;28;19929;-62
2022/08/10 07:51:56;;;;;;;;;;;;;;;;;;5047060;28;19964;-61
2022/08/10 07:54:22;;;;;;;;;;;;;;;;;;5028408;28;19932;-61
2022/08/10 07:56:48;;;;;;;;;;;;;;;;;;5046611;28;19925;-61
2022/08/10 07:59:15;;;;;;;;;;;;;;;;;;5046254;28;19921;-62
2022/08/10 08:01:41;;;;;;;;;;;;;;;;;;5045203;28;19974;-62
2022/08/10 08:04:07;;;;;;;;;;;;;;;;;;5046782;28;19967;-62
2022/08/10 08:06:33;;;;;;;;;;;;;;;;;;5046142;28;20526;-62
2022/08/10 08:08:59;;;;;;;;;;;;;;;;;;5046378;28;20778;-62
2022/08/10 08:11:25;;;;;;;;;;;;;;;;;;5046249;28;19984;-61
2022/08/10 08:13:51;;;;;;;;;;;;;;;;;;5045536;28;20290;-65
2022/08/10 08:16:17;;;;;;;;;;;;;;;;;;5045255;28;20576;-64
2022/08/10 08:18:43;;;;;;;;;;;;;;;;;;5046566;28;19925;-65
2022/08/10 08:21:09;;;;;;;;;;;;;;;;;;5046028;28;19947;-64
2022/08/10 08:23:36;;;;;;;;;;;;;;;;;;5046671;28;20374;-64
2022/08/10 08:26:02;;;;;;;;;;;;;;;;;;5045995;28;19929;-64
2022/08/10 08:28:28;;;;;;;;;;;;;;;;;;5046159;28;19932;-64
2022/08/10 08:30:54;;;;;;;;;;;;;;;;;;5044179;28;20274;-61
2022/08/10 08:33:20;;;;;;;;;;;;;;;;;;5046256;28;20358;-65
2022/08/10 08:35:46;;;;;;;;;;;;;;;;;;5045354;28;19928;-65
2022/08/10 08:38:12;;;;;;;;;;;;;;;;;;5045990;28;19925;-65
2022/08/10 08:40:38;;;;;;;;;;;;;;;;;;5046121;28;19925;-64
2022/08/10 08:43:05;;;;;;;;;;;;;;;;;;5046488;28;19949;-64
2022/08/10 08:45:31;;;;;;;;;;;;;;;;;;5044784;28;19928;-64
2022/08/10 08:47:57;;;;;;;;;;;;;;;;;;5045255;28;19955;-64
2022/08/10 08:50:23;;;;;;;;;;;;;;;;;;5045424;28;19925;-64
2022/08/10 08:52:49;;;;;;;;;;;;;;;;;;5045974;28;20280;-65
2022/08/10 08:55:15;;;;;;;;;;;;;;;;;;5045040;28;19928;-65
2022/08/10 08:57:41;;;;;;;;;;;;;;;;;;5044274;28;20603;-65
2022/08/10 09:00:08;;;;;;;;;;;;;;;;;;5064381;28;20366;-64
2022/08/10 09:02:34;;;;;;;;;;;;;;;;;;5065802;28;19972;-64
2022/08/10 09:05:01;;;;;;;;;;;;;;;;;;5064900;28;19985;-65
2022/08/10 09:07:27;;;;;;;;;;;;;;;;;;5064928;28;19925;-64
2022/08/10 09:09:53;;;;;;;;;;;;;;;;;;5065260;28;20007;-64
2022/08/10 09:12:19;;;;;;;;;;;;;;;;;;5064312;28;20007;-64
2022/08/10 09:14:45;;;;;;;;;;;;;;;;;;5064028;28;19925;-64
2022/08/10 09:17:11;;;;;;;;;;;;;;;;;;5064911;28;19932;-64
2022/08/10 09:19:37;;;;;;;;;;;;;;;;;;5065500;28;19990;-64
2022/08/10 09:22:03;;;;;;;;;;;;;;;;;;5064900;28;20434;-63
2022/08/10 09:24:29;;;;;;;;;;;;;;;;;;5064530;28;20404;-64
2022/08/10 09:26:55;;;;;;;;;;;;;;;;;;5064755;28;19920;-64
2022/08/10 09:29:21;;;;;;;;;;;;;;;;;;5064675;28;19925;-64
2022/08/10 09:31:47;;;;;;;;;;;;;;;;;;5064239;28;19931;-64
2022/08/10 09:34:13;;;;;;;;;;;;;;;;;;5064190;28;19924;-64
2022/08/10 09:36:40;;;;;;;;;;;;;;;;;;5064357;28;20345;-65
2022/08/10 09:39:06;;;;;;;;;;;;;;;;;;5064695;28;19924;-64
2022/08/10 09:41:32;;;;;;;;;;;;;;;;;;5064290;28;19939;-64
2022/08/10 09:43:58;;;;;;;;;;;;;;;;;;5064420;28;19928;-64
2022/08/10 09:46:24;;;;;;;;;;;;;;;;;;5063169;28;19925;-64
2022/08/10 09:48:50;;;;;;;;;;;;;;;;;;5064385;28;20548;-64
2022/08/10 09:51:16;;;;;;;;;;;;;;;;;;5064495;28;19967;-64
2022/08/10 09:53:43;;;;;;;;;;;;;;;;;;5064569;28;19986;-64
2022/08/10 09:56:09;;;;;;;;;;;;;;;;;;5064421;28;19924;-65
2022/08/10 09:58:35;;;;;;;;;;;;;;;;;;5064358;28;19925;-63
2022/08/10 10:01:01;;;;;;;;;;;;;;;;;;5063686;28;19931;-64
2022/08/10 10:03:27;;;;;;;;;;;;;;;;;;5064107;28;19924;-64
2022/08/10 10:05:53;;;;;;;;;;;;;;;;;;5064022;28;20293;-64
2022/08/10 10:08:20;;;;;;;;;;;;;;;;;;5063970;28;19932;-64
2022/08/10 10:10:46;;;;;;;;;;;;;;;;;;5063716;28;20122;-64
2022/08/10 10:13:12;;;;;;;;;;;;;;;;;;5064418;28;20597;-64
2022/08/10 10:15:38;;;;;;;;;;;;;;;;;;5063858;28;20018;-64
2022/08/10 10:18:04;;;;;;;;;;;;;;;;;;5064691;28;19991;-64
2022/08/10 10:20:30;;;;;;;;;;;;;;;;;;5063261;28;19960;-63
2022/08/10 10:22:56;;;;;;;;;;;;;;;;;;5064598;28;19924;-63
2022/08/10 10:25:22;;;;;;;;;;;;;;;;;;5063919;28;19920;-64
2022/08/10 10:27:48;;;;;;;;;;;;;;;;;;5064313;28;19924;-63
2022/08/10 10:30:14;;;;;;;;;;;;;;;;;;5063053;28;19924;-64
2022/08/10 10:32:41;;;;;;;;;;;;;;;;;;5063645;28;20007;-64
2022/08/10 10:35:07;;;;;;;;;;;;;;;;;;5064332;28;19932;-63
2022/08/10 10:37:33;;;;;;;;;;;;;;;;;;5063552;28;19916;-64
2022/08/10 10:39:59;;;;;;;;;;;;;;;;;;5063818;28;19936;-64
2022/08/10 10:42:25;;;;;;;;;;;;;;;;;;5063682;28;20412;-64
2022/08/10 10:44:51;;;;;;;;;;;;;;;;;;5062808;28;19932;-64
2022/08/10 10:47:17;;;;;;;;;;;;;;;;;;5063418;28;19999;-64
2022/08/10 10:49:43;;;;;;;;;;;;;;;;;;5064006;28;19925;-64
2022/08/10 10:52:09;;;;;;;;;;;;;;;;;;5063811;28;20001;-64
2022/08/10 10:54:35;;;;;;;;;;;;;;;;;;5065364;28;19972;-64
2022/08/10 10:57:01;;;;;;;;;;;;;;;;;;5067812;28;20027;-63
2022/08/10 10:59:27;;;;;;;;;;;;;;;;;;5066746;28;19925;-64
2022/08/10 11:01:53;;;;;;;;;;;;;;;;;;5067480;28;19928;-64
2022/08/10 11:04:19;;;;;;;;;;;;;;;;;;5067506;28;20009;-63
2022/08/10 11:06:45;;;;;;;;;;;;;;;;;;5066841;28;19931;-64
2022/08/10 11:09:11;;;;;;;;;;;;;;;;;;5067073;28;20279;-64
2022/08/10 11:11:37;;;;;;;;;;;;;;;;;;5067778;28;20675;-63
2022/08/10 11:14:04;;;;;;;;;;;;;;;;;;5067336;28;19927;-63
2022/08/10 11:16:30;;;;;;;;;;;;;;;;;;5066827;28;19978;-63
2022/08/10 11:18:56;;;;;;;;;;;;;;;;;;5067083;28;19929;-64
2022/08/10 11:21:22;;;;;;;;;;;;;;;;;;5067239;28;19925;-63
2022/08/10 11:23:48;;;;;;;;;;;;;;;;;;5067192;28;19928;-63
2022/08/10 11:26:14;;;;;;;;;;;;;;;;;;5067046;28;19920;-63
2022/08/10 11:28:40;;;;;;;;;;;;;;;;;;5067262;28;20391;-64
2022/08/10 11:31:06;;;;;;;;;;;;;;;;;;5066473;28;19924;-63
2022/08/10 11:33:32;;;;;;;;;;;;;;;;;;5067207;28;19924;-64
2022/08/10 11:35:58;;;;;;;;;;;;;;;;;;5066374;28;19925;-63
2022/08/10 11:38:24;;;;;;;;;;;;;;;;;;5067120;28;19924;-64
2022/08/10 11:40:51;;;;;;;;;;;;;;;;;;5066367;28;19967;-64
2022/08/10 11:43:19;;;;;;;;;;;;;;;;;;5067041;28;19924;-64
2022/08/10 11:45:45;;;;;;;;;;;;;;;;;;5066257;28;19932;-64
2022/08/10 11:48:11;;;;;;;;;;;;;;;;;;5066534;28;19924;-65
2022/08/10 11:50:37;;;;;;;;;;;;;;;;;;5066859;28;19920;-60
2022/08/10 11:53:04;;;;;;;;;;;;;;;;;;5047892;28;20007;-60
2022/08/10 11:55:30;;;;;;;;;;;;;;;;;;5066454;28;20001;-62
2022/08/10 11:57:56;;;;;;;;;;;;;;;;;;5066451;28;19924;-61
2022/08/10 12:00:22;;;;;;;;;;;;;;;;;;5065652;28;19986;-63
2022/08/10 12:02:48;;;;;;;;;;;;;;;;;;5065945;28;19924;-63
2022/08/10 12:05:14;;;;;;;;;;;;;;;;;;5065560;28;20019;-62
2022/08/10 12:07:41;;;;;;;;;;;;;;;;;;5065634;28;20062;-63
2022/08/10 12:10:07;;;;;;;;;;;;;;;;;;5065988;28;19924;-62
2022/08/10 12:12:33;;;;;;;;;;;;;;;;;;5065315;28;19916;-62
2022/08/10 12:14:59;;;;;;;;;;;;;;;;;;5064188;28;20523;-63
2022/08/10 12:17:25;;;;;;;;;;;;;;;;;;5065028;28;20297;-63
2022/08/10 12:19:51;;;;;;;;;;;;;;;;;;5052268;28;19925;-62
2022/08/10 12:22:17;;;;;;;;;;;;;;;;;;5045440;28;19925;-63
2022/08/10 12:24:43;;;;;;;;;;;;;;;;;;5045215;28;19924;-63
2022/08/10 12:27:09;;;;;;;;;;;;;;;;;;5044947;28;20020;-63
2022/08/10 12:29:35;;;;;;;;;;;;;;;;;;5044782;28;20026;-62
2022/08/10 12:32:03;;;;;;;;;;;;;;;;;;5045481;28;19972;-63
2022/08/10 12:34:30;;;;;;;;;;;;;;;;;;5044726;28;19929;-63
2022/08/10 12:36:56;;;;;;;;;;;;;;;;;;5045013;28;19932;-62
2022/08/10 12:39:22;;;;;;;;;;;;;;;;;;5044344;28;19924;-63
2022/08/10 12:41:48;;;;;;;;;;;;;;;;;;5045145;28;19932;-62
2022/08/10 12:44:14;;;;;;;;;;;;;;;;;;5044040;28;19925;-62
2022/08/10 12:46:40;;;;;;;;;;;;;;;;;;5044574;28;19931;-63
2022/08/10 12:49:06;;;;;;;;;;;;;;;;;;5044981;28;19927;-62
2022/08/10 12:51:34;;;;;;;;;;;;;;;;;;5043953;28;20289;-62
2022/08/10 12:54:00;;;;;;;;;;;;;;;;;;5044705;28;19931;-63
2022/08/10 12:56:26;;;;;;;;;;;;;;;;;;5044351;28;20016;-62
2022/08/10 12:58:52;;;;;;;;;;;;;;;;;;5044239;28;19924;-62
2022/08/10 13:01:18;;;;;;;;;;;;;;;;;;5043114;28;19970;-62
2022/08/10 13:03:44;;;;;;;;;;;;;;;;;;5044172;28;19984;-63
2022/08/10 13:06:10;;;;;;;;;;;;;;;;;;4980604;28;1821091;-63
2022/08/10 13:11:20;;;;;;;;;;;;;;;;;;5044859;28;20024;-63
2022/08/10 13:13:47;;;;;;;;;;;;;;;;;;5045878;28;20004;-63
2022/08/10 13:16:13;;;;;;;;;;;;;;;;;;5044310;28;19951;-63
2022/08/10 13:18:40;;;;;;;;;;;;;;;;;;5045101;28;19928;-64
2022/08/10 13:21:06;;;;;;;;;;;;;;;;;;5045542;28;19932;-63
2022/08/10 13:23:32;;;;;;;;;;;;;;;;;;5044716;28;19924;-63
2022/08/10 13:25:58;;;;;;;;;;;;;;;;;;5044965;28;19932;-63
2022/08/10 13:28:24;;;;;;;;;;;;;;;;;;5044880;28;19925;-62
2022/08/10 13:30:50;;;;;;;;;;;;;;;;;;5044042;28;19931;-62
2022/08/10 13:33:16;;;;;;;;;;;;;;;;;;5045127;28;19920;-63
2022/08/10 13:35:42;;;;;;;;;;;;;;;;;;5044377;28;19929;-63
2022/08/10 13:38:08;;;;;;;;;;;;;;;;;;5045487;28;19953;-62
2022/08/10 13:40:34;;;;;;;;;;;;;;;;;;5045140;28;19924;-62
2022/08/10 13:43:00;;;;;;;;;;;;;;;;;;5044702;28;19951;-62
2022/08/10 13:45:26;;;;;;;;;;;;;;;;;;5043827;28;19924;-62
2022/08/10 13:47:52;;;;;;;;;;;;;;;;;;5044074;28;20293;-63
2022/08/10 13:50:18;;;;;;;;;;;;;;;;;;5044579;28;19968;-63
2022/08/10 13:52:44;;;;;;;;;;;;;;;;;;5044564;28;20404;-63
2022/08/10 13:55:11;;;;;;;;;;;;;;;;;;5044620;28;19927;-63
2022/08/10 13:57:37;;;;;;;;;;;;;;;;;;5044552;28;20015;-63
2022/08/10 14:00:05;;;;;;;;;;;;;;;;;;5043869;28;19929;-63
2022/08/10 14:02:31;;;;;;;;;;;;;;;;;;5044202;28;19971;-63
2022/08/10 14:04:58;;;;;;;;;;;;;;;;;;5044450;28;19925;-63
2022/08/10 14:07:24;;;;;;;;;;;;;;;;;;5044353;28;19925;-63
2022/08/10 14:09:50;;;;;;;;;;;;;;;;;;5043986;28;19930;-63
2022/08/10 14:12:16;;;;;;;;;;;;;;;;;;5044422;28;19940;-63
2022/08/10 14:14:42;;;;;;;;;;;;;;;;;;5043907;28;19939;-63
2022/08/10 14:17:08;;;;;;;;;;;;;;;;;;5044939;28;20304;-62
2022/08/10 14:19:34;;;;;;;;;;;;;;;;;;5044653;28;19927;-63
2022/08/10 14:22:00;;;;;;;;;;;;;;;;;;5043722;28;20309;-63
2022/08/10 14:24:26;;;;;;;;;;;;;;;;;;5043786;28;19924;-63
2022/08/10 14:26:52;;;;;;;;;;;;;;;;;;5044317;28;19925;-63
2022/08/10 14:29:18;;;;;;;;;;;;;;;;;;5042369;28;20439;-63
2022/08/10 14:31:47;;;;;;;;;;;;;;;;;;5044364;28;19957;-63
2022/08/10 14:34:13;;;;;;;;;;;;;;;;;;5043315;28;20598;-63
2022/08/10 14:36:41;;;;;;;;;;;;;;;;;;5044163;28;19925;-63
2022/08/10 14:39:07;;;;;;;;;;;;;;;;;;5044369;28;19925;-63
2022/08/10 14:41:33;;;;;;;;;;;;;;;;;;5043310;28;19931;-63
2022/08/10 14:43:59;;;;;;;;;;;;;;;;;;5042764;28;19939;-63
2022/08/10 14:46:25;;;;;;;;;;;;;;;;;;5043636;28;19921;-63
2022/08/10 14:48:51;;;;;;;;;;;;;;;;;;5043608;28;20326;-63
2022/08/10 14:51:17;;;;;;;;;;;;;;;;;;5043700;28;19931;-63
2022/08/10 14:53:42;;;;;;;;;;;;;;;;;;5043550;28;19987;-63
2022/08/10 14:56:09;;;;;;;;;;;;;;;;;;5043682;28;20451;-64
2022/08/10 14:58:35;;;;;;;;;;;;;;;;;;5043988;28;20554;-63
2022/08/10 15:01:01;;;;;;;;;;;;;;;;;;5043085;28;19968;-63
2022/08/10 15:03:27;;;;;;;;;;;;;;;;;;5043473;28;19924;-63
2022/08/10 15:05:53;;;;;;;;;;;;;;;;;;5043830;28;19932;-63
2022/08/10 15:08:19;;;;;;;;;;;;;;;;;;5042998;28;20412;-63
2022/08/10 15:10:45;;;;;;;;;;;;;;;;;;5043611;28;19924;-63
2022/08/10 15:13:11;;;;;;;;;;;;;;;;;;5043655;28;19926;-63
2022/08/10 15:15:37;;;;;;;;;;;;;;;;;;5043454;28;20003;-63
2022/08/10 15:18:03;;;;;;;;;;;;;;;;;;5043991;28;19921;-62
2022/08/10 15:20:30;;;;;;;;;;;;;;;;;;5042674;28;20468;-63
2022/08/10 15:22:56;;;;;;;;;;;;;;;;;;5043788;28;20369;-63
2022/08/10 15:25:22;;;;;;;;;;;;;;;;;;5043110;28;19925;-63
2022/08/10 15:27:48;;;;;;;;;;;;;;;;;;5043086;28;20409;-63
2022/08/10 15:30:14;;;;;;;;;;;;;;;;;;5042554;28;19964;-63
2022/08/10 15:38:09;;;;;;;;;;;;;;;;;;5043071;28;20019;-64
2022/08/10 15:40:35;;;;;;;;;;;;;;;;;;5045211;28;20070;-63
2022/08/10 15:43:01;;;;;;;;;;;;;;;;;;5046564;28;20374;-63
2022/08/10 15:45:27;;;;;;;;;;;;;;;;;;5052805;28;19950;-63
2022/08/10 15:47:53;;;;;;;;;;;;;;;;;;5046710;28;19929;-63
2022/08/10 15:50:19;;;;;;;;;;;;;;;;;;5045977;28;20397;-64
2022/08/10 15:52:45;;;;;;;;;;;;;;;;;;5046718;28;20057;-64
2022/08/10 15:55:11;;;;;;;;;;;;;;;;;;5047047;28;19975;-63
2022/08/10 15:57:37;;;;;;;;;;;;;;;;;;5047206;28;19921;-64
2022/08/10 16:00:03;;;;;;;;;;;;;;;;;;5046358;28;19944;-63
2022/08/10 16:02:29;;;;;;;;;;;;;;;;;;5045726;28;20046;-64
2022/08/10 16:04:55;;;;;;;;;;;;;;;;;;5045961;28;20016;-64
2022/08/10 16:07:21;;;;;;;;;;;;;;;;;;5046473;28;19925;-63
2022/08/10 16:09:47;;;;;;;;;;;;;;;;;;5028497;28;20589;-63
2022/08/10 16:12:13;;;;;;;;;;;;;;;;;;5046070;28;19931;-63
2022/08/10 16:14:39;;;;;;;;;;;;;;;;;;5027378;28;19931;-63
2022/08/10 16:17:05;;;;;;;;;;;;;;;;;;5046059;28;19925;-63
2022/08/10 16:19:31;;;;;;;;;;;;;;;;;;5045970;28;20568;-63
2022/08/10 16:21:57;;;;;;;;;;;;;;;;;;5046321;28;20285;-63
2022/08/10 16:24:23;;;;;;;;;;;;;;;;;;5027892;28;20020;-63
2022/08/10 16:26:49;;;;;;;;;;;;;;;;;;5046152;28;20012;-63
2022/08/10 16:29:16;;;;;;;;;;;;;;;;;;5044681;28;19931;-63
2022/08/10 16:31:42;;;;;;;;;;;;;;;;;;5046328;28;20003;-63
2022/08/10 16:34:08;;;;;;;;;;;;;;;;;;5046048;28;20134;-63
2022/08/10 16:36:34;;;;;;;;;;;;;;;;;;5046130;28;19925;-63
2022/08/10 16:39:00;;;;;;;;;;;;;;;;;;5045802;28;19935;-63
2022/08/10 16:41:26;;;;;;;;;;;;;;;;;;5045818;28;19925;-63
2022/08/10 16:43:52;;;;;;;;;;;;;;;;;;5045080;28;20007;-63
2022/08/10 16:46:18;;;;;;;;;;;;;;;;;;5045955;28;19924;-63
2022/08/10 16:48:44;;;;;;;;;;;;;;;;;;5027008;28;19932;-61